createdAt,value
2017-04-17T00:02:03.448Z,10.92
2017-04-17T00:02:52.566Z,10.82
2017-04-17T00:03:38.108Z,10.84
2017-04-17T00:04:19.445Z,10.89
2017-04-17T00:06:09.748Z,10.97
2017-04-17T00:06:55.849Z,10.91
2017-04-17T00:07:39.703Z,10.96
2017-04-17T00:08:20.174Z,10.99
2017-04-17T00:09:01.701Z,10.88
2017-04-17T00:09:42.312Z,10.94
2017-04-17T00:10:22.837Z,10.94
2017-04-17T00:11:05.707Z,11
2017-04-17T00:11:49.786Z,10.96
2017-04-17T00:12:30.901Z,10.99
2017-04-17T00:13:14.824Z,10.97
2017-04-17T00:13:56.360Z,10.96
2017-04-17T00:14:37.653Z,11.03
2017-04-17T00:15:19.694Z,11
2017-04-17T00:16:00.083Z,11.07
2017-04-17T00:16:41.327Z,10.97
2017-04-17T00:17:25.264Z,11
2017-04-17T00:18:05.659Z,10.99
2017-04-17T00:18:47.353Z,10.99
2017-04-17T00:19:29.145Z,11
2017-04-17T00:20:09.673Z,10.97
2017-04-17T00:20:50.775Z,10.99
2017-04-17T00:21:31.253Z,10.99
2017-04-17T00:22:17.040Z,10.94
2017-04-17T00:22:58.066Z,10.82
2017-04-17T00:23:39.231Z,10.79
2017-04-17T00:24:19.726Z,10.82
2017-04-17T00:25:01.764Z,10.6
2017-04-17T00:26:08.887Z,10.61
2017-04-17T00:29:10.217Z,10.68
2017-04-17T00:29:52.330Z,10.53
2017-04-17T00:30:32.309Z,10.63
2017-04-17T00:31:12.805Z,10.73
2017-04-17T00:32:00.742Z,10.61
2017-04-17T00:32:41.244Z,10.61
2017-04-17T00:33:28.586Z,10.6
2017-04-17T00:35:26.841Z,10.63
2017-04-17T00:36:14.009Z,10.53
2017-04-17T00:37:08.274Z,10.66
2017-04-17T00:37:52.616Z,10.67
2017-04-17T00:38:33.086Z,10.66
2017-04-17T00:39:13.576Z,10.59
2017-04-17T00:39:54.096Z,10.61
2017-04-17T00:40:34.556Z,10.71
2017-04-17T00:41:15.141Z,10.67
2017-04-17T00:41:55.637Z,10.63
2017-04-17T00:42:36.136Z,10.63
2017-04-17T00:43:16.639Z,10.7
2017-04-17T00:44:42.340Z,10.59
2017-04-17T00:45:42.740Z,10.63
2017-04-17T00:47:49.248Z,10.78
2017-04-17T00:48:33.020Z,10.84
2017-04-17T00:49:14.006Z,10.97
2017-04-17T00:49:54.506Z,10.88
2017-04-17T00:50:35.015Z,10.79
2017-04-17T00:51:15.488Z,10.84
2017-04-17T00:51:56.001Z,10.85
2017-04-17T00:52:36.538Z,10.91
2017-04-17T00:53:17.009Z,10.82
2017-04-17T00:53:57.496Z,10.79
2017-04-17T00:54:38.026Z,10.92
2017-04-17T00:55:18.518Z,10.94
2017-04-17T00:55:59.015Z,11.02
2017-04-17T00:56:39.533Z,11.07
2017-04-17T00:57:20.031Z,11.17
2017-04-17T00:58:00.547Z,11.07
2017-04-17T00:58:41.035Z,11.07
2017-04-17T00:59:21.555Z,10.97
2017-04-17T01:00:02.044Z,11.1
2017-04-17T01:00:42.536Z,11.09
2017-04-17T01:01:23.019Z,11.09
2017-04-17T01:02:03.569Z,11.07
2017-04-17T01:02:44.015Z,10.96
2017-04-17T01:03:24.514Z,10.97
2017-04-17T01:04:05.114Z,10.96
2017-04-17T01:04:45.613Z,10.97
2017-04-17T01:05:26.118Z,10.94
2017-04-17T01:06:06.563Z,11.06
2017-04-17T01:06:47.060Z,11.02
2017-04-17T01:07:27.562Z,11.03
2017-04-17T01:08:08.065Z,11.07
2017-04-17T01:08:48.579Z,11.07
2017-04-17T01:09:29.081Z,11.07
2017-04-17T01:10:09.569Z,11.06
2017-04-17T01:10:50.115Z,11.09
2017-04-17T01:11:30.598Z,11.17
2017-04-17T01:12:11.096Z,11.18
2017-04-17T01:12:51.614Z,11.18
2017-04-17T01:13:32.114Z,11.22
2017-04-17T01:14:12.620Z,11.19
2017-04-17T01:14:53.068Z,11.19
2017-04-17T01:15:33.580Z,11.17
2017-04-17T01:16:14.057Z,11.17
2017-04-17T01:16:54.631Z,11.24
2017-04-17T01:17:35.093Z,11.24
2017-04-17T01:18:15.593Z,11.35
2017-04-17T01:18:56.056Z,11.37
2017-04-17T01:19:36.569Z,11.36
2017-04-17T01:20:17.065Z,11.33
2017-04-17T01:20:57.513Z,11.24
2017-04-17T01:21:37.991Z,11.22
2017-04-17T01:22:18.501Z,11.15
2017-04-17T01:22:58.963Z,11.09
2017-04-17T01:23:39.466Z,11.02
2017-04-17T01:24:19.974Z,10.99
2017-04-17T01:25:00.453Z,10.94
2017-04-17T01:25:40.949Z,11.06
2017-04-17T01:26:21.433Z,11.02
2017-04-17T01:27:01.992Z,10.96
2017-04-17T01:27:44.956Z,11.04
2017-04-17T01:30:00.462Z,10.92
2017-04-17T01:30:48.345Z,10.76
2017-04-17T01:31:40.924Z,10.79
2017-04-17T01:33:32.014Z,10.91
2017-04-17T01:34:15.400Z,10.79
2017-04-17T01:34:55.926Z,10.82
2017-04-17T01:35:36.422Z,10.73
2017-04-17T01:36:16.853Z,10.76
2017-04-17T01:36:57.353Z,10.6
2017-04-17T01:37:39.355Z,10.6
2017-04-17T01:38:19.995Z,10.59
2017-04-17T01:39:00.511Z,10.66
2017-04-17T01:39:40.965Z,10.55
2017-04-17T01:40:21.437Z,10.66
2017-04-17T01:41:01.927Z,10.67
2017-04-17T01:41:42.378Z,10.7
2017-04-17T01:42:25.051Z,10.68
2017-04-17T01:43:05.544Z,10.66
2017-04-17T01:43:45.997Z,10.56
2017-04-17T01:44:26.474Z,10.67
2017-04-17T01:45:06.981Z,10.52
2017-04-17T01:45:48.476Z,10.66
2017-04-17T01:46:28.007Z,10.61
2017-04-17T01:47:09.564Z,10.67
2017-04-17T01:47:50.059Z,10.7
2017-04-17T01:48:30.531Z,10.76
2017-04-17T01:49:11.051Z,10.76
2017-04-17T01:49:51.527Z,10.66
2017-04-17T01:50:32.023Z,10.6
2017-04-17T01:51:12.495Z,10.73
2017-04-17T01:51:55.633Z,10.64
2017-04-17T01:52:36.154Z,10.61
2017-04-17T01:53:16.663Z,10.67
2017-04-17T01:53:57.137Z,10.7
2017-04-17T01:54:38.720Z,10.76
2017-04-17T01:55:21.042Z,10.76
2017-04-17T01:57:10.502Z,10.74
2017-04-17T01:58:51.297Z,10.67
2017-04-17T01:59:35.644Z,10.6
2017-04-17T02:00:16.134Z,10.71
2017-04-17T02:00:56.606Z,10.68
2017-04-17T02:01:37.117Z,10.59
2017-04-17T02:02:17.593Z,10.61
2017-04-17T02:03:00.102Z,10.66
2017-04-17T02:03:40.560Z,10.7
2017-04-17T02:04:21.034Z,10.76
2017-04-17T02:05:01.513Z,10.71
2017-04-17T02:05:42.002Z,10.71
2017-04-17T02:06:22.493Z,10.64
2017-04-17T02:07:04.175Z,10.64
2017-04-17T02:07:45.270Z,10.68
2017-04-17T02:08:25.707Z,10.63
2017-04-17T02:09:06.180Z,10.52
2017-04-17T02:09:46.655Z,10.63
2017-04-17T02:10:27.158Z,10.52
2017-04-17T02:11:07.664Z,10.55
2017-04-17T02:11:48.095Z,10.48
2017-04-17T02:12:30.106Z,10.48
2017-04-17T02:13:10.638Z,10.48
2017-04-17T02:13:51.324Z,10.51
2017-04-17T02:14:31.836Z,10.51
2017-04-17T02:15:12.373Z,10.55
2017-04-17T02:15:52.832Z,10.55
2017-04-17T02:16:35.793Z,10.56
2017-04-17T02:17:16.283Z,10.44
2017-04-17T02:17:56.757Z,10.51
2017-04-17T02:18:37.249Z,10.55
2017-04-17T02:19:17.733Z,10.48
2017-04-17T02:19:58.307Z,10.4
2017-04-17T02:20:40.721Z,10.41
2017-04-17T02:21:21.238Z,10.41
2017-04-17T02:22:01.689Z,10.45
2017-04-17T02:22:42.126Z,10.47
2017-04-17T02:23:22.642Z,10.52
2017-04-17T02:24:03.117Z,10.61
2017-04-17T02:24:46.571Z,10.71
2017-04-17T02:25:27.046Z,10.61
2017-04-17T02:26:07.552Z,10.67
2017-04-17T02:26:48.090Z,10.68
2017-04-17T02:27:28.638Z,10.61
2017-04-17T02:28:11.045Z,10.68
2017-04-17T02:28:51.470Z,10.6
2017-04-17T02:29:31.955Z,10.6
2017-04-17T02:30:12.412Z,10.67
2017-04-17T02:30:52.886Z,10.48
2017-04-17T02:31:33.367Z,10.63
2017-04-17T02:32:15.786Z,10.51
2017-04-17T02:32:56.245Z,10.55
2017-04-17T02:33:36.753Z,10.53
2017-04-17T02:34:17.277Z,10.61
2017-04-17T02:34:57.726Z,10.66
2017-04-17T02:35:38.245Z,10.71
2017-04-17T02:36:18.722Z,10.63
2017-04-17T02:36:59.277Z,10.68
2017-04-17T02:37:39.758Z,10.67
2017-04-17T02:38:20.308Z,10.61
2017-04-17T02:39:00.825Z,10.76
2017-04-17T02:39:41.292Z,10.84
2017-04-17T02:40:21.818Z,10.82
2017-04-17T02:41:02.321Z,10.79
2017-04-17T02:41:42.787Z,10.84
2017-04-17T02:42:23.313Z,10.71
2017-04-17T02:43:03.760Z,10.7
2017-04-17T02:43:44.262Z,10.76
2017-04-17T02:44:24.790Z,10.67
2017-04-17T02:45:05.276Z,10.68
2017-04-17T02:45:45.719Z,10.63
2017-04-17T02:46:26.242Z,10.6
2017-04-17T02:47:06.702Z,10.55
2017-04-17T02:47:47.233Z,10.48
2017-04-17T02:48:27.686Z,10.59
2017-04-17T02:49:08.145Z,10.53
2017-04-17T02:49:48.655Z,10.56
2017-04-17T02:50:29.167Z,10.52
2017-04-17T02:51:09.638Z,10.56
2017-04-17T02:51:50.113Z,10.64
2017-04-17T02:52:30.561Z,10.6
2017-04-17T02:53:11.080Z,10.67
2017-04-17T02:53:51.560Z,10.73
2017-04-17T02:54:32.056Z,10.67
2017-04-17T02:55:12.569Z,10.6
2017-04-17T02:55:53.018Z,10.68
2017-04-17T02:56:33.469Z,10.63
2017-04-17T02:57:13.993Z,10.7
2017-04-17T02:57:54.458Z,10.6
2017-04-17T02:58:34.963Z,10.63
2017-04-17T02:59:15.456Z,10.59
2017-04-17T02:59:55.957Z,10.55
2017-04-17T03:00:36.540Z,10.53
2017-04-17T03:01:17.100Z,10.55
2017-04-17T03:01:57.570Z,10.51
2017-04-17T03:02:38.121Z,10.53
2017-04-17T03:03:18.571Z,10.55
2017-04-17T03:03:59.063Z,10.6
2017-04-17T03:04:39.516Z,10.68
2017-04-17T03:05:20.046Z,10.61
2017-04-17T03:06:00.528Z,10.6
2017-04-17T03:06:41.030Z,10.59
2017-04-17T03:07:21.475Z,10.7
2017-04-17T03:08:01.931Z,10.63
2017-04-17T03:08:42.447Z,10.63
2017-04-17T03:09:22.910Z,10.59
2017-04-17T03:10:03.407Z,10.64
2017-04-17T03:10:43.904Z,10.53
2017-04-17T03:11:24.360Z,10.51
2017-04-17T03:12:04.910Z,10.42
2017-04-17T03:12:45.402Z,10.42
2017-04-17T03:13:25.878Z,10.33
2017-04-17T03:14:06.373Z,10.4
2017-04-17T03:14:47.120Z,10.34
2017-04-17T03:15:27.537Z,10.32
2017-04-17T03:16:08.018Z,10.27
2017-04-17T03:16:48.502Z,10.29
2017-04-17T03:17:29.013Z,10.33
2017-04-17T03:18:09.510Z,10.29
2017-04-17T03:18:49.950Z,10.29
2017-04-17T03:19:30.518Z,10.27
2017-04-17T03:20:11.004Z,10.26
2017-04-17T03:20:51.487Z,10.32
2017-04-17T03:21:31.957Z,10.33
2017-04-17T03:22:12.664Z,10.33
2017-04-17T03:22:53.135Z,10.32
2017-04-17T03:23:33.626Z,10.25
2017-04-17T03:24:14.164Z,10.25
2017-04-17T03:24:54.651Z,10.25
2017-04-17T03:25:35.108Z,10.29
2017-04-17T03:26:15.617Z,10.15
2017-04-17T03:26:56.102Z,10.26
2017-04-17T03:27:36.595Z,10.29
2017-04-17T03:28:17.029Z,10.29
2017-04-17T03:28:57.557Z,10.32
2017-04-17T03:29:38.086Z,10.33
2017-04-17T03:30:18.568Z,10.17
2017-04-17T03:30:59.051Z,10.2
2017-04-17T03:31:39.506Z,10.2
2017-04-17T03:32:20.050Z,10.12
2017-04-17T03:33:00.575Z,10.22
2017-04-17T03:33:41.027Z,10.23
2017-04-17T03:34:21.494Z,10.15
2017-04-17T03:35:02.027Z,10.25
2017-04-17T03:35:42.490Z,10.27
2017-04-17T03:36:22.995Z,10.27
2017-04-17T03:37:03.450Z,10.26
2017-04-17T03:37:43.939Z,10.26
2017-04-17T03:38:24.407Z,10.25
2017-04-17T03:39:04.991Z,10.22
2017-04-17T03:39:45.438Z,10.32
2017-04-17T03:40:25.916Z,10.25
2017-04-17T03:41:06.444Z,10.25
2017-04-17T03:41:46.895Z,10.33
2017-04-17T03:42:27.408Z,10.29
2017-04-17T03:43:07.844Z,10.26
2017-04-17T03:43:48.384Z,10.27
2017-04-17T03:44:28.864Z,10.4
2017-04-17T03:45:09.296Z,10.45
2017-04-17T03:45:49.814Z,10.41
2017-04-17T03:46:30.302Z,10.52
2017-04-17T03:47:10.779Z,10.53
2017-04-17T03:47:51.316Z,10.6
2017-04-17T03:48:31.829Z,10.63
2017-04-17T03:49:12.306Z,10.53
2017-04-17T03:49:52.740Z,10.67
2017-04-17T03:50:33.271Z,10.64
2017-04-17T03:51:13.751Z,10.63
2017-04-17T03:51:54.230Z,10.71
2017-04-17T03:52:34.793Z,10.64
2017-04-17T03:53:15.266Z,10.63
2017-04-17T03:53:55.791Z,10.68
2017-04-17T03:54:36.300Z,10.68
2017-04-17T03:55:16.749Z,10.56
2017-04-17T03:55:57.271Z,10.51
2017-04-17T03:56:37.731Z,10.52
2017-04-17T03:57:18.273Z,10.51
2017-04-17T03:57:58.700Z,10.6
2017-04-17T03:58:39.223Z,10.55
2017-04-17T03:59:19.697Z,10.32
2017-04-17T04:00:00.181Z,10.4
2017-04-17T04:00:40.692Z,10.3
2017-04-17T04:01:21.182Z,10.32
2017-04-17T04:02:01.643Z,10.36
2017-04-17T04:02:42.159Z,10.32
2017-04-17T04:03:22.632Z,10.38
2017-04-17T04:04:03.138Z,10.36
2017-04-17T04:04:43.613Z,10.44
2017-04-17T04:05:24.127Z,10.42
2017-04-17T04:06:04.609Z,10.51
2017-04-17T04:06:45.072Z,10.41
2017-04-17T04:07:25.584Z,10.42
2017-04-17T04:08:06.052Z,10.51
2017-04-17T04:08:46.515Z,10.47
2017-04-17T04:09:27.052Z,10.56
2017-04-17T04:10:07.495Z,10.55
2017-04-17T04:10:48.057Z,10.45
2017-04-17T04:11:28.493Z,10.52
2017-04-17T04:12:08.956Z,10.56
2017-04-17T04:12:49.486Z,10.48
2017-04-17T04:13:29.973Z,10.52
2017-04-17T04:14:10.551Z,10.51
2017-04-17T04:14:51.031Z,10.55
2017-04-17T04:15:31.501Z,10.48
2017-04-17T04:16:11.960Z,10.61
2017-04-17T04:16:52.439Z,10.48
2017-04-17T04:17:32.984Z,10.53
2017-04-17T04:18:13.411Z,10.51
2017-04-17T04:18:53.922Z,10.56
2017-04-17T04:19:34.481Z,10.52
2017-04-17T04:20:14.984Z,10.53
2017-04-17T04:20:55.455Z,10.53
2017-04-17T04:21:35.966Z,10.53
2017-04-17T04:22:16.467Z,10.52
2017-04-17T04:22:56.954Z,10.56
2017-04-17T04:23:37.449Z,10.45
2017-04-17T04:24:18.002Z,10.56
2017-04-17T04:24:58.470Z,10.36
2017-04-17T04:25:39.007Z,10.33
2017-04-17T04:26:19.498Z,10.32
2017-04-17T04:26:59.978Z,10.29
2017-04-17T04:27:40.509Z,10.33
2017-04-17T04:28:20.933Z,10.3
2017-04-17T04:29:01.432Z,10.48
2017-04-17T04:29:41.922Z,10.56
2017-04-17T04:30:22.400Z,10.47
2017-04-17T04:31:02.910Z,10.42
2017-04-17T04:31:43.535Z,10.53
2017-04-17T04:32:24.031Z,10.6
2017-04-17T04:33:04.495Z,10.51
2017-04-17T04:33:44.989Z,10.53
2017-04-17T04:34:25.508Z,10.48
2017-04-17T04:35:05.936Z,10.53
2017-04-17T04:35:46.448Z,10.41
2017-04-17T04:36:26.972Z,10.52
2017-04-17T04:37:07.425Z,10.53
2017-04-17T04:37:47.901Z,10.52
2017-04-17T04:38:28.391Z,10.51
2017-04-17T04:39:08.898Z,10.38
2017-04-17T04:39:49.372Z,10.34
2017-04-17T04:40:29.859Z,10.36
2017-04-17T04:41:10.443Z,10.47
2017-04-17T04:41:50.933Z,10.32
2017-04-17T04:42:31.386Z,10.4
2017-04-17T04:43:11.895Z,10.3
2017-04-17T04:43:52.423Z,10.34
2017-04-17T04:44:32.901Z,10.4
2017-04-17T04:45:13.346Z,10.42
2017-04-17T04:45:53.897Z,10.42
2017-04-17T04:46:34.367Z,10.4
2017-04-17T04:47:14.835Z,10.48
2017-04-17T04:47:55.386Z,10.47
2017-04-17T04:48:35.845Z,10.48
2017-04-17T04:49:16.337Z,10.53
2017-04-17T04:49:56.809Z,10.51
2017-04-17T04:50:37.287Z,10.56
2017-04-17T04:51:17.797Z,10.55
2017-04-17T04:51:58.298Z,10.48
2017-04-17T04:52:38.786Z,10.53
2017-04-17T04:53:19.258Z,10.55
2017-04-17T04:53:59.758Z,10.52
2017-04-17T04:54:40.262Z,10.52
2017-04-17T04:55:20.698Z,10.51
2017-04-17T04:56:01.200Z,10.6
2017-04-17T04:56:41.682Z,10.61
2017-04-17T04:57:22.188Z,10.56
2017-04-17T04:58:02.701Z,10.53
2017-04-17T04:58:43.157Z,10.52
2017-04-17T04:59:23.705Z,10.53
2017-04-17T05:00:04.186Z,10.63
2017-04-17T05:00:44.662Z,10.63
2017-04-17T05:01:25.212Z,10.59
2017-04-17T05:02:05.700Z,10.7
2017-04-17T05:02:46.227Z,10.63
2017-04-17T05:03:26.673Z,10.64
2017-04-17T05:04:07.239Z,10.59
2017-04-17T05:04:47.774Z,10.61
2017-04-17T05:05:28.278Z,10.53
2017-04-17T05:06:08.697Z,10.52
2017-04-17T05:06:50.641Z,10.45
2017-04-17T05:07:32.191Z,10.38
2017-04-17T05:08:12.809Z,10.48
2017-04-17T05:08:53.264Z,10.55
2017-04-17T05:09:33.788Z,10.59
2017-04-17T05:10:16.109Z,10.53
2017-04-17T05:10:56.911Z,10.52
2017-04-17T05:11:37.408Z,10.55
2017-04-17T05:12:17.898Z,10.59
2017-04-17T05:12:58.351Z,10.55
2017-04-17T05:13:38.845Z,10.51
2017-04-17T05:14:21.992Z,10.6
2017-04-17T05:15:02.456Z,10.52
2017-04-17T05:15:42.977Z,10.53
2017-04-17T05:16:23.489Z,10.48
2017-04-17T05:17:03.918Z,10.53
2017-04-17T05:19:19.293Z,10.6
2017-04-17T05:20:13.637Z,10.63
2017-04-17T05:21:03.104Z,10.63
2017-04-17T05:21:50.724Z,10.53
2017-04-17T05:22:39.492Z,10.53
2017-04-17T05:23:29.490Z,10.53
2017-04-17T05:24:15.238Z,10.56
2017-04-17T05:24:56.482Z,10.53
2017-04-17T05:25:38.276Z,10.48
2017-04-17T05:26:18.799Z,10.42
2017-04-17T05:26:59.299Z,10.34
2017-04-17T05:27:40.523Z,10.36
2017-04-17T05:28:21.583Z,10.4
2017-04-17T05:29:02.086Z,10.34
2017-04-17T05:29:42.615Z,10.36
2017-04-17T05:30:23.335Z,10.34
2017-04-17T05:31:03.666Z,10.36
2017-04-17T05:31:44.128Z,10.42
2017-04-17T05:32:26.646Z,10.59
2017-04-17T05:33:07.071Z,10.45
2017-04-17T05:33:47.536Z,10.44
2017-04-17T05:34:29.550Z,10.4
2017-04-17T05:35:11.438Z,10.38
2017-04-17T05:35:51.937Z,10.38
2017-04-17T05:36:32.634Z,10.34
2017-04-17T05:37:14.214Z,10.3
2017-04-17T05:37:56.573Z,10.34
2017-04-17T05:38:36.640Z,10.48
2017-04-17T05:39:17.190Z,10.55
2017-04-17T05:39:59.559Z,10.53
2017-04-17T05:40:41.838Z,10.52
2017-04-17T05:41:23.252Z,10.52
2017-04-17T05:42:03.852Z,10.61
2017-04-17T05:42:46.139Z,10.51
2017-04-17T05:43:26.630Z,10.47
2017-04-17T05:44:07.142Z,10.52
2017-04-17T05:44:48.406Z,10.53
2017-04-17T05:45:28.897Z,10.55
2017-04-17T05:46:10.707Z,10.51
2017-04-17T05:46:51.180Z,10.55
2017-04-17T05:47:31.682Z,10.55
2017-04-17T05:48:12.203Z,10.53
2017-04-17T05:48:52.655Z,10.52
2017-04-17T05:49:34.057Z,10.52
2017-04-17T05:50:15.734Z,10.55
2017-04-17T05:50:56.317Z,10.63
2017-04-17T05:51:38.284Z,10.66
2017-04-17T05:52:18.149Z,10.68
2017-04-17T05:52:58.659Z,10.63
2017-04-17T05:53:39.162Z,10.66
2017-04-17T05:54:20.971Z,10.6
2017-04-17T05:55:01.550Z,10.6
2017-04-17T05:55:41.971Z,10.67
2017-04-17T05:56:22.478Z,10.52
2017-04-17T05:57:02.965Z,10.61
2017-04-17T05:57:43.436Z,10.51
2017-04-17T05:58:28.157Z,10.56
2017-04-17T05:59:08.667Z,10.56
2017-04-17T05:59:49.129Z,10.59
2017-04-17T06:02:09.476Z,10.59
2017-04-17T06:04:34.674Z,10.66
2017-04-17T06:05:22.979Z,10.59
2017-04-17T06:06:11.887Z,10.7
2017-04-17T06:06:56.536Z,10.66
2017-04-17T06:07:45.420Z,10.79
2017-04-17T06:08:34.476Z,10.67
2017-04-17T06:09:16.995Z,10.82
2017-04-17T06:09:57.547Z,10.74
2017-04-17T06:10:38.094Z,10.78
2017-04-17T06:11:19.147Z,10.71
2017-04-17T06:12:00.180Z,10.81
2017-04-17T06:12:40.699Z,10.82
2017-04-17T06:13:21.144Z,10.79
2017-04-17T06:14:01.632Z,10.82
2017-04-17T06:14:42.905Z,10.82
2017-04-17T06:15:23.429Z,10.84
2017-04-17T06:16:05.514Z,10.84
2017-04-17T06:16:47.841Z,10.84
2017-04-17T06:17:28.315Z,10.82
2017-04-17T06:18:11.343Z,10.85
2017-04-17T06:18:51.823Z,10.88
2017-04-17T06:19:32.312Z,10.81
2017-04-17T06:20:12.788Z,10.79
2017-04-17T06:20:53.304Z,10.94
2017-04-17T06:21:35.200Z,10.96
2017-04-17T06:22:16.250Z,10.94
2017-04-17T06:22:56.758Z,10.88
2017-04-17T06:23:37.129Z,10.81
2017-04-17T06:24:17.672Z,10.84
2017-04-17T06:24:58.198Z,10.88
2017-04-17T06:25:42.850Z,10.82
2017-04-17T06:26:23.358Z,10.84
2017-04-17T06:27:04.786Z,10.85
2017-04-17T06:27:45.511Z,10.89
2017-04-17T06:28:26.907Z,10.88
2017-04-17T06:29:07.450Z,10.81
2017-04-17T06:29:47.909Z,10.92
2017-04-17T06:30:29.305Z,10.96
2017-04-17T06:32:21.616Z,11.07
2017-04-17T06:33:11.761Z,11.11
2017-04-17T06:34:01.936Z,11.03
2017-04-17T06:35:40.506Z,11.04
2017-04-17T06:37:32.479Z,11.07
2017-04-17T06:38:20.223Z,10.99
2017-04-17T06:39:11.290Z,10.99
2017-04-17T06:39:58.712Z,10.99
2017-04-17T06:40:47.519Z,11.09
2017-04-17T06:41:37.466Z,11.07
2017-04-17T06:42:29.251Z,11.03
2017-04-17T06:43:11.098Z,11.04
2017-04-17T06:43:53.741Z,11.07
2017-04-17T06:44:34.242Z,11.1
2017-04-17T06:45:17.518Z,11.11
2017-04-17T06:45:58.046Z,11.07
2017-04-17T06:46:41.362Z,11.19
2017-04-17T06:47:24.451Z,11.22
2017-04-17T06:48:04.947Z,11.21
2017-04-17T06:48:45.790Z,11.32
2017-04-17T06:49:26.382Z,11.28
2017-04-17T06:50:06.889Z,11.28
2017-04-17T06:50:49.074Z,11.24
2017-04-17T06:51:29.559Z,11.19
2017-04-17T06:52:10.033Z,11.17
2017-04-17T06:54:27.369Z,11.28
2017-04-17T06:55:11.184Z,11.27
2017-04-17T06:56:00.020Z,11.22
2017-04-17T06:56:42.186Z,11.21
2017-04-17T06:57:22.674Z,11.17
2017-04-17T06:59:38.819Z,11.29
2017-04-17T07:00:26.546Z,11.42
2017-04-17T07:01:09.356Z,11.43
2017-04-17T07:01:52.542Z,11.57
2017-04-17T07:02:32.866Z,11.58
2017-04-17T07:03:13.335Z,11.64
2017-04-17T07:03:55.221Z,11.7
2017-04-17T07:04:35.741Z,11.79
2017-04-17T07:05:17.040Z,11.78
2017-04-17T07:07:36.980Z,12.12
2017-04-17T07:09:35.522Z,12.07
2017-04-17T07:10:18.816Z,12.1
2017-04-17T07:10:58.968Z,12.04
2017-04-17T07:11:41.830Z,11.98
2017-04-17T07:12:22.664Z,12.02
2017-04-17T07:13:04.140Z,11.99
2017-04-17T07:13:45.952Z,11.98
2017-04-17T07:14:26.332Z,11.94
2017-04-17T07:15:06.874Z,11.98
2017-04-17T07:15:47.355Z,11.83
2017-04-17T07:16:27.815Z,11.86
2017-04-17T07:17:08.273Z,11.86
2017-04-17T07:17:48.782Z,11.98
2017-04-17T07:18:29.268Z,11.99
2017-04-17T07:19:10.735Z,12.1
2017-04-17T07:19:51.559Z,12.12
2017-04-17T07:20:32.603Z,12.04
2017-04-17T07:21:13.180Z,12.07
2017-04-17T07:21:53.653Z,12.14
2017-04-17T07:22:34.132Z,12.17
2017-04-17T07:23:16.272Z,12.13
2017-04-17T07:24:59.754Z,12.13
2017-04-17T07:25:47.859Z,12.17
2017-04-17T07:26:34.757Z,12.1
2017-04-17T07:27:18.521Z,12.04
2017-04-17T07:27:59.014Z,12.02
2017-04-17T07:28:39.528Z,12.02
2017-04-17T07:30:31.639Z,12.14
2017-04-17T07:31:13.945Z,12.13
2017-04-17T07:33:19.104Z,12.34
2017-04-17T07:35:08.580Z,12.38
2017-04-17T07:35:51.716Z,12.39
2017-04-17T07:36:32.213Z,12.34
2017-04-17T07:37:12.758Z,12.49
2017-04-17T07:37:53.256Z,12.59
2017-04-17T07:38:33.758Z,12.53
2017-04-17T07:39:14.401Z,12.41
2017-04-17T07:39:55.004Z,12.47
2017-04-17T07:40:38.292Z,12.47
2017-04-17T07:41:19.467Z,12.56
2017-04-17T07:42:01.768Z,12.54
2017-04-17T07:42:42.204Z,12.41
2017-04-17T07:43:22.750Z,12.47
2017-04-17T07:44:03.283Z,12.47
2017-04-17T07:44:45.926Z,12.41
2017-04-17T07:45:26.447Z,12.38
2017-04-17T07:46:06.943Z,12.41
2017-04-17T07:46:47.442Z,12.41
2017-04-17T07:47:27.887Z,12.45
2017-04-17T07:48:08.595Z,12.38
2017-04-17T07:48:52.622Z,12.41
2017-04-17T07:49:33.204Z,12.39
2017-04-17T07:50:13.723Z,12.37
2017-04-17T07:50:55.021Z,12.45
2017-04-17T07:51:36.525Z,12.37
2017-04-17T07:52:17.071Z,12.38
2017-04-17T07:52:57.554Z,12.37
2017-04-17T07:53:40.981Z,12.39
2017-04-17T07:54:22.242Z,12.45
2017-04-17T07:55:03.481Z,12.39
2017-04-17T07:55:46.611Z,12.52
2017-04-17T07:57:28.072Z,12.52
2017-04-17T07:58:09.800Z,12.47
2017-04-17T07:58:51.000Z,12.45
2017-04-17T07:59:32.775Z,12.39
2017-04-17T08:00:12.665Z,12.34
2017-04-17T08:00:53.151Z,12.23
2017-04-17T08:01:39.310Z,12.28
2017-04-17T08:02:19.846Z,12.13
2017-04-17T08:03:00.432Z,12.14
2017-04-17T08:03:41.653Z,12.17
2017-04-17T08:04:22.168Z,12.13
2017-04-17T08:05:02.679Z,12.13
2017-04-17T08:05:47.065Z,12.12
2017-04-17T08:07:38.052Z,12.12
2017-04-17T08:08:26.319Z,12.12
2017-04-17T08:09:07.606Z,12.01
2017-04-17T08:09:48.090Z,11.96
2017-04-17T08:10:28.737Z,11.98
2017-04-17T08:11:09.312Z,11.95
2017-04-17T08:11:51.817Z,11.94
2017-04-17T08:12:32.457Z,11.99
2017-04-17T08:13:15.208Z,11.98
2017-04-17T08:15:03.185Z,11.94
2017-04-17T08:16:04.115Z,11.96
2017-04-17T08:16:45.556Z,11.94
2017-04-17T08:17:26.209Z,11.99
2017-04-17T08:18:08.604Z,12.05
2017-04-17T08:19:56.638Z,12.09
2017-04-17T08:20:39.563Z,12.1
2017-04-17T08:21:19.886Z,11.98
2017-04-17T08:22:01.670Z,12.01
2017-04-17T08:22:42.164Z,12.1
2017-04-17T08:23:22.654Z,12.13
2017-04-17T08:24:03.099Z,12.07
2017-04-17T08:24:44.138Z,12.04
2017-04-17T08:25:24.622Z,12.1
2017-04-17T08:26:05.103Z,12.14
2017-04-17T08:26:45.629Z,12.16
2017-04-17T08:27:26.403Z,12.12
2017-04-17T08:28:08.150Z,12.17
2017-04-17T08:28:48.554Z,12.1
2017-04-17T08:29:29.036Z,12.17
2017-04-17T08:30:09.533Z,12.1
2017-04-17T08:30:50.076Z,12.1
2017-04-17T08:31:30.489Z,12.02
2017-04-17T08:32:10.961Z,12.07
2017-04-17T08:32:51.839Z,12.09
2017-04-17T08:33:33.739Z,12.16
2017-04-17T08:34:14.327Z,12.13
2017-04-17T08:34:55.241Z,12.01
2017-04-17T08:35:35.739Z,12.09
2017-04-17T08:36:17.246Z,12.04
2017-04-17T08:38:18.615Z,12.19
2017-04-17T08:38:58.998Z,12.1
2017-04-17T08:39:39.902Z,12.09
2017-04-17T08:40:20.442Z,12.14
2017-04-17T08:41:00.967Z,12.16
2017-04-17T08:41:41.461Z,12.29
2017-04-17T08:42:25.224Z,12.27
2017-04-17T08:43:05.696Z,12.28
2017-04-17T08:43:46.191Z,12.32
2017-04-17T08:44:28.333Z,12.24
2017-04-17T08:45:08.526Z,12.27
2017-04-17T08:47:11.267Z,12.38
2017-04-17T08:47:51.484Z,12.38
2017-04-17T08:48:32.721Z,12.45
2017-04-17T08:49:13.887Z,12.54
2017-04-17T08:49:54.560Z,12.62
2017-04-17T08:50:35.296Z,12.52
2017-04-17T08:51:15.829Z,12.54
2017-04-17T08:51:56.264Z,12.53
2017-04-17T08:52:36.750Z,12.49
2017-04-17T08:53:19.777Z,12.54
2017-04-17T08:54:01.139Z,12.57
2017-04-17T08:54:41.637Z,12.62
2017-04-17T08:55:22.143Z,12.68
2017-04-17T08:57:15.987Z,12.85
2017-04-17T08:57:55.681Z,12.77
2017-04-17T08:58:36.213Z,12.85
2017-04-17T08:59:16.658Z,12.86
2017-04-17T08:59:57.181Z,12.83
2017-04-17T09:00:38.363Z,12.74
2017-04-17T09:01:19.168Z,12.7
2017-04-17T09:01:59.785Z,12.74
2017-04-17T09:02:41.906Z,12.64
2017-04-17T09:03:20.984Z,12.71
2017-04-17T09:04:01.608Z,12.65
2017-04-17T09:04:42.073Z,12.67
2017-04-17T09:05:22.749Z,12.59
2017-04-17T09:06:04.497Z,12.57
2017-04-17T09:06:45.171Z,12.67
2017-04-17T09:07:28.655Z,12.67
2017-04-17T09:08:09.881Z,12.6
2017-04-17T09:08:50.049Z,12.71
2017-04-17T09:09:30.540Z,12.68
2017-04-17T09:10:11.091Z,12.65
2017-04-17T09:10:51.555Z,12.57
2017-04-17T09:11:32.129Z,12.53
2017-04-17T09:12:12.574Z,12.54
2017-04-17T09:12:53.062Z,12.54
2017-04-17T09:13:33.634Z,12.49
2017-04-17T09:14:14.062Z,12.52
2017-04-17T09:14:54.540Z,12.62
2017-04-17T09:15:35.050Z,12.59
2017-04-17T09:16:15.540Z,12.59
2017-04-17T09:16:56.086Z,12.62
2017-04-17T09:17:36.519Z,12.62
2017-04-17T09:18:16.990Z,12.57
2017-04-17T09:18:57.504Z,12.6
2017-04-17T09:19:38.015Z,12.59
2017-04-17T09:20:18.533Z,12.64
2017-04-17T09:20:59.021Z,12.71
2017-04-17T09:21:39.500Z,12.64
2017-04-17T09:22:19.985Z,12.65
2017-04-17T09:23:00.473Z,12.65
2017-04-17T09:23:40.932Z,12.56
2017-04-17T09:24:21.411Z,12.56
2017-04-17T09:25:01.921Z,12.75
2017-04-17T09:25:42.483Z,12.65
2017-04-17T09:26:22.914Z,12.67
2017-04-17T09:27:03.391Z,12.74
2017-04-17T09:27:43.898Z,12.65
2017-04-17T09:28:24.371Z,12.71
2017-04-17T09:29:04.943Z,12.67
2017-04-17T09:29:45.413Z,12.65
2017-04-17T09:30:25.925Z,12.62
2017-04-17T09:31:06.989Z,12.67
2017-04-17T09:31:47.532Z,12.65
2017-04-17T09:32:27.997Z,12.62
2017-04-17T09:33:08.460Z,12.67
2017-04-17T09:33:48.931Z,12.7
2017-04-17T09:34:29.426Z,12.7